sensor_id;sensor_type;location;lat;lon;timestamp;temperature;humidity
33007;DHT22;19361;51.598;7.650;2024-03-02T00:03:50;10.70;57.90
33007;DHT22;19361;51.598;7.650;2024-03-02T00:08:50;10.70;57.90
33007;DHT22;19361;51.598;7.650;2024-03-02T00:13:53;10.70;57.60
33007;DHT22;19361;51.598;7.650;2024-03-02T00:18:54;10.70;57.50
33007;DHT22;19361;51.598;7.650;2024-03-02T00:23:55;10.60;57.40
33007;DHT22;19361;51.598;7.650;2024-03-02T00:28:56;10.60;57.50
33007;DHT22;19361;51.598;7.650;2024-03-02T00:34:00;10.60;57.50
33007;DHT22;19361;51.598;7.650;2024-03-02T00:39:03;10.60;57.50
33007;DHT22;19361;51.598;7.650;2024-03-02T00:44:09;10.60;57.40
33007;DHT22;19361;51.598;7.650;2024-03-02T00:54:27;10.60;57.30
33007;DHT22;19361;51.598;7.650;2024-03-02T00:59:29;10.60;57.20
33007;DHT22;19361;51.598;7.650;2024-03-02T01:04:32;10.70;57.20
33007;DHT22;19361;51.598;7.650;2024-03-02T01:09:32;10.70;57.10
33007;DHT22;19361;51.598;7.650;2024-03-02T01:14:33;10.70;57.10
33007;DHT22;19361;51.598;7.650;2024-03-02T01:19:34;10.70;56.90
33007;DHT22;19361;51.598;7.650;2024-03-02T01:24:34;10.80;56.80
33007;DHT22;19361;51.598;7.650;2024-03-02T01:29:35;10.80;56.70
33007;DHT22;19361;51.598;7.650;2024-03-02T01:34:36;10.80;56.70
33007;DHT22;19361;51.598;7.650;2024-03-02T01:39:36;10.80;56.60
33007;DHT22;19361;51.598;7.650;2024-03-02T01:44:37;10.80;56.50
33007;DHT22;19361;51.598;7.650;2024-03-02T01:49:38;10.80;56.40
33007;DHT22;19361;51.598;7.650;2024-03-02T01:54:39;10.80;56.90
33007;DHT22;19361;51.598;7.650;2024-03-02T01:59:39;10.80;56.40
33007;DHT22;19361;51.598;7.650;2024-03-02T02:04:40;10.80;56.30
33007;DHT22;19361;51.598;7.650;2024-03-02T02:09:42;10.80;56.30
33007;DHT22;19361;51.598;7.650;2024-03-02T02:14:49;10.80;56.40
33007;DHT22;19361;51.598;7.650;2024-03-02T02:19:53;10.80;56.40
33007;DHT22;19361;51.598;7.650;2024-03-02T02:24:53;10.70;56.40
33007;DHT22;19361;51.598;7.650;2024-03-02T02:29:55;10.70;56.50
33007;DHT22;19361;51.598;7.650;2024-03-02T02:34:56;10.70;56.40
33007;DHT22;19361;51.598;7.650;2024-03-02T02:39:57;10.70;56.50
33007;DHT22;19361;51.598;7.650;2024-03-02T02:44:58;10.70;56.30
33007;DHT22;19361;51.598;7.650;2024-03-02T02:49:58;10.70;56.30
33007;DHT22;19361;51.598;7.650;2024-03-02T02:54:59;10.70;56.30
33007;DHT22;19361;51.598;7.650;2024-03-02T03:00:00;10.70;56.40
33007;DHT22;19361;51.598;7.650;2024-03-02T03:05:13;10.70;56.30
33007;DHT22;19361;51.598;7.650;2024-03-02T03:10:14;10.70;56.30
33007;DHT22;19361;51.598;7.650;2024-03-02T03:15:15;10.60;56.20
33007;DHT22;19361;51.598;7.650;2024-03-02T03:20:16;10.70;56.30
33007;DHT22;19361;51.598;7.650;2024-03-02T03:25:17;10.60;56.20
33007;DHT22;19361;51.598;7.650;2024-03-02T03:30:18;10.60;56.30
33007;DHT22;19361;51.598;7.650;2024-03-02T03:35:19;10.60;56.30
33007;DHT22;19361;51.598;7.650;2024-03-02T03:40:19;10.60;56.40
33007;DHT22;19361;51.598;7.650;2024-03-02T03:45:20;10.50;56.20
33007;DHT22;19361;51.598;7.650;2024-03-02T03:50:21;10.50;56.20
33007;DHT22;19361;51.598;7.650;2024-03-02T03:55:22;10.40;56.10
33007;DHT22;19361;51.598;7.650;2024-03-02T04:00:22;10.30;56.10
33007;DHT22;19361;51.598;7.650;2024-03-02T04:05:23;10.30;56.10
33007;DHT22;19361;51.598;7.650;2024-03-02T04:10:24;10.20;56.20
33007;DHT22;19361;51.598;7.650;2024-03-02T04:15:24;10.10;56.20
33007;DHT22;19361;51.598;7.650;2024-03-02T04:20:25;10.10;56.40
33007;DHT22;19361;51.598;7.650;2024-03-02T04:25:26;10.00;56.70
33007;DHT22;19361;51.598;7.650;2024-03-02T04:30:26;10.00;56.50
33007;DHT22;19361;51.598;7.650;2024-03-02T04:35:27;10.00;56.60
33007;DHT22;19361;51.598;7.650;2024-03-02T04:40:29;10.00;56.70
33007;DHT22;19361;51.598;7.650;2024-03-02T04:45:29;10.00;56.70
33007;DHT22;19361;51.598;7.650;2024-03-02T04:50:30;10.00;56.60
33007;DHT22;19361;51.598;7.650;2024-03-02T04:55:31;10.00;56.60
33007;DHT22;19361;51.598;7.650;2024-03-02T05:00:51;10.00;56.60
33007;DHT22;19361;51.598;7.650;2024-03-02T05:05:52;9.90;56.60
33007;DHT22;19361;51.598;7.650;2024-03-02T05:10:53;9.90;56.70
33007;DHT22;19361;51.598;7.650;2024-03-02T05:15:53;9.80;56.90
33007;DHT22;19361;51.598;7.650;2024-03-02T05:20:54;9.80;56.90
33007;DHT22;19361;51.598;7.650;2024-03-02T05:25:55;9.80;56.90
33007;DHT22;19361;51.598;7.650;2024-03-02T05:30:55;9.80;57.00
33007;DHT22;19361;51.598;7.650;2024-03-02T05:35:56;9.70;57.00
33007;DHT22;19361;51.598;7.650;2024-03-02T05:40:57;9.60;56.90
33007;DHT22;19361;51.598;7.650;2024-03-02T05:45:57;9.50;56.90
33007;DHT22;19361;51.598;7.650;2024-03-02T05:50:58;9.40;57.00
33007;DHT22;19361;51.598;7.650;2024-03-02T05:55:59;9.30;57.00
33007;DHT22;19361;51.598;7.650;2024-03-02T06:00:59;9.20;57.10
33007;DHT22;19361;51.598;7.650;2024-03-02T06:06:00;9.10;57.40
33007;DHT22;19361;51.598;7.650;2024-03-02T06:11:01;9.10;57.60
33007;DHT22;19361;51.598;7.650;2024-03-02T06:16:02;9.10;57.70
33007;DHT22;19361;51.598;7.650;2024-03-02T06:21:03;9.00;57.70
33007;DHT22;19361;51.598;7.650;2024-03-02T06:26:04;9.00;57.80
33007;DHT22;19361;51.598;7.650;2024-03-02T06:31:05;8.90;57.90
33007;DHT22;19361;51.598;7.650;2024-03-02T06:36:06;8.90;58.00
33007;DHT22;19361;51.598;7.650;2024-03-02T06:41:09;8.90;58.00
33007;DHT22;19361;51.598;7.650;2024-03-02T06:46:11;8.90;58.10
33007;DHT22;19361;51.598;7.650;2024-03-02T06:51:14;8.90;58.40
33007;DHT22;19361;51.598;7.650;2024-03-02T06:56:16;8.90;58.80
33007;DHT22;19361;51.598;7.650;2024-03-02T07:01:16;8.90;59.00
33007;DHT22;19361;51.598;7.650;2024-03-02T07:06:17;9.00;59.50
33007;DHT22;19361;51.598;7.650;2024-03-02T07:11:18;9.10;59.40
33007;DHT22;19361;51.598;7.650;2024-03-02T07:16:18;9.20;59.90
33007;DHT22;19361;51.598;7.650;2024-03-02T07:21:28;9.30;59.70
33007;DHT22;19361;51.598;7.650;2024-03-02T07:26:29;9.50;59.90
33007;DHT22;19361;51.598;7.650;2024-03-02T07:31:31;9.60;59.70
33007;DHT22;19361;51.598;7.650;2024-03-02T07:36:32;9.70;59.70
33007;DHT22;19361;51.598;7.650;2024-03-02T07:41:32;9.80;60.20
33007;DHT22;19361;51.598;7.650;2024-03-02T07:46:33;9.90;60.30
33007;DHT22;19361;51.598;7.650;2024-03-02T07:51:34;10.10;60.20
33007;DHT22;19361;51.598;7.650;2024-03-02T07:56:35;10.20;60.10
33007;DHT22;19361;51.598;7.650;2024-03-02T08:01:36;10.40;59.90
33007;DHT22;19361;51.598;7.650;2024-03-02T08:06:37;10.60;59.70
33007;DHT22;19361;51.598;7.650;2024-03-02T08:11:38;10.70;59.60
33007;DHT22;19361;51.598;7.650;2024-03-02T08:16:39;10.80;59.30
33007;DHT22;19361;51.598;7.650;2024-03-02T08:21:40;11.00;59.00
33007;DHT22;19361;51.598;7.650;2024-03-02T08:26:41;11.10;58.80
33007;DHT22;19361;51.598;7.650;2024-03-02T08:31:42;11.30;58.60
33007;DHT22;19361;51.598;7.650;2024-03-02T08:36:43;11.40;58.40
33007;DHT22;19361;51.598;7.650;2024-03-02T08:41:46;11.60;58.30
33007;DHT22;19361;51.598;7.650;2024-03-02T08:46:48;11.80;57.70
33007;DHT22;19361;51.598;7.650;2024-03-02T08:51:48;11.90;58.20
33007;DHT22;19361;51.598;7.650;2024-03-02T08:56:54;12.00;56.60
33007;DHT22;19361;51.598;7.650;2024-03-02T09:01:55;12.20;56.70
33007;DHT22;19361;51.598;7.650;2024-03-02T09:06:56;12.30;56.10
33007;DHT22;19361;51.598;7.650;2024-03-02T09:11:56;12.50;56.20
33007;DHT22;19361;51.598;7.650;2024-03-02T09:16:58;12.60;55.80
33007;DHT22;19361;51.598;7.650;2024-03-02T09:21:58;12.70;55.50
33007;DHT22;19361;51.598;7.650;2024-03-02T09:26:59;12.90;54.90
33007;DHT22;19361;51.598;7.650;2024-03-02T09:32:00;13.00;54.50
33007;DHT22;19361;51.598;7.650;2024-03-02T09:37:01;13.10;54.90
33007;DHT22;19361;51.598;7.650;2024-03-02T09:42:03;13.20;54.00
33007;DHT22;19361;51.598;7.650;2024-03-02T09:47:06;13.30;54.10
33007;DHT22;19361;51.598;7.650;2024-03-02T09:52:07;13.40;54.30
33007;DHT22;19361;51.598;7.650;2024-03-02T09:57:08;13.50;54.40
33007;DHT22;19361;51.598;7.650;2024-03-02T10:02:09;13.70;54.60
33007;DHT22;19361;51.598;7.650;2024-03-02T10:07:18;13.80;53.50
33007;DHT22;19361;51.598;7.650;2024-03-02T10:12:19;14.00;54.00
33007;DHT22;19361;51.598;7.650;2024-03-02T10:17:20;14.10;54.00
33007;DHT22;19361;51.598;7.650;2024-03-02T10:22:23;14.20;52.40
33007;DHT22;19361;51.598;7.650;2024-03-02T10:27:27;14.30;51.60
33007;DHT22;19361;51.598;7.650;2024-03-02T10:32:28;14.50;52.20
33007;DHT22;19361;51.598;7.650;2024-03-02T10:37:29;14.60;52.60
33007;DHT22;19361;51.598;7.650;2024-03-02T10:42:30;14.70;52.00
33007;DHT22;19361;51.598;7.650;2024-03-02T10:47:31;14.90;50.90
33007;DHT22;19361;51.598;7.650;2024-03-02T10:52:35;15.00;51.90
33007;DHT22;19361;51.598;7.650;2024-03-02T11:02:56;15.30;50.40
33007;DHT22;19361;51.598;7.650;2024-03-02T11:08:06;15.50;50.20
33007;DHT22;19361;51.598;7.650;2024-03-02T11:13:12;15.60;49.30
33007;DHT22;19361;51.598;7.650;2024-03-02T11:18:14;15.70;49.10
33007;DHT22;19361;51.598;7.650;2024-03-02T11:23:15;15.80;48.40
33007;DHT22;19361;51.598;7.650;2024-03-02T11:28:16;15.90;48.90
33007;DHT22;19361;51.598;7.650;2024-03-02T11:33:36;16.00;47.70
33007;DHT22;19361;51.598;7.650;2024-03-02T11:38:36;16.10;48.30
33007;DHT22;19361;51.598;7.650;2024-03-02T11:43:38;16.20;48.30
33007;DHT22;19361;51.598;7.650;2024-03-02T11:48:42;16.30;47.90
33007;DHT22;19361;51.598;7.650;2024-03-02T11:53:43;16.40;48.30
33007;DHT22;19361;51.598;7.650;2024-03-02T11:58:45;16.50;46.10
33007;DHT22;19361;51.598;7.650;2024-03-02T12:03:45;16.60;46.80
33007;DHT22;19361;51.598;7.650;2024-03-02T12:08:46;16.70;47.40
33007;DHT22;19361;51.598;7.650;2024-03-02T12:13:53;16.80;46.90
33007;DHT22;19361;51.598;7.650;2024-03-02T12:18:58;16.90;47.40
33007;DHT22;19361;51.598;7.650;2024-03-02T12:23:59;17.00;45.50
33007;DHT22;19361;51.598;7.650;2024-03-02T12:29:00;17.10;45.90
33007;DHT22;19361;51.598;7.650;2024-03-02T12:34:01;17.20;45.50
33007;DHT22;19361;51.598;7.650;2024-03-02T12:39:03;17.40;45.70
33007;DHT22;19361;51.598;7.650;2024-03-02T12:44:04;17.50;46.30
33007;DHT22;19361;51.598;7.650;2024-03-02T12:49:11;17.60;45.00
33007;DHT22;19361;51.598;7.650;2024-03-02T12:54:12;17.70;44.80
33007;DHT22;19361;51.598;7.650;2024-03-02T12:59:20;17.70;45.40
33007;DHT22;19361;51.598;7.650;2024-03-02T13:04:26;17.70;43.80
33007;DHT22;19361;51.598;7.650;2024-03-02T13:09:28;17.70;44.10
33007;DHT22;19361;51.598;7.650;2024-03-02T13:14:35;17.60;42.70
33007;DHT22;19361;51.598;7.650;2024-03-02T13:19:36;17.50;43.20
33007;DHT22;19361;51.598;7.650;2024-03-02T13:24:36;17.40;43.10
33007;DHT22;19361;51.598;7.650;2024-03-02T13:29:37;17.30;43.40
33007;DHT22;19361;51.598;7.650;2024-03-02T13:34:38;17.20;44.10
33007;DHT22;19361;51.598;7.650;2024-03-02T13:39:39;17.20;44.60
33007;DHT22;19361;51.598;7.650;2024-03-02T13:44:46;17.20;44.70
33007;DHT22;19361;51.598;7.650;2024-03-02T13:49:48;17.10;44.50
33007;DHT22;19361;51.598;7.650;2024-03-02T13:54:49;17.10;45.00
33007;DHT22;19361;51.598;7.650;2024-03-02T13:59:52;17.10;45.00
33007;DHT22;19361;51.598;7.650;2024-03-02T14:04:53;17.10;44.00
33007;DHT22;19361;51.598;7.650;2024-03-02T14:09:54;17.10;43.90
33007;DHT22;19361;51.598;7.650;2024-03-02T14:14:55;17.10;43.80
33007;DHT22;19361;51.598;7.650;2024-03-02T14:19:58;17.10;43.70
33007;DHT22;19361;51.598;7.650;2024-03-02T14:24:59;17.00;43.20
33007;DHT22;19361;51.598;7.650;2024-03-02T14:30:00;16.90;43.40
33007;DHT22;19361;51.598;7.650;2024-03-02T14:35:00;16.90;43.50
33007;DHT22;19361;51.598;7.650;2024-03-02T14:40:02;16.80;43.60
33007;DHT22;19361;51.598;7.650;2024-03-02T14:45:06;16.80;43.90
33007;DHT22;19361;51.598;7.650;2024-03-02T14:50:07;16.80;43.40
33007;DHT22;19361;51.598;7.650;2024-03-02T14:55:10;16.80;43.80
33007;DHT22;19361;51.598;7.650;2024-03-02T15:00:11;16.80;43.50
33007;DHT22;19361;51.598;7.650;2024-03-02T15:05:12;16.80;43.60
33007;DHT22;19361;51.598;7.650;2024-03-02T15:10:12;16.90;44.00
33007;DHT22;19361;51.598;7.650;2024-03-02T15:15:13;16.90;43.60
33007;DHT22;19361;51.598;7.650;2024-03-02T15:20:14;16.90;43.70
33007;DHT22;19361;51.598;7.650;2024-03-02T15:25:14;16.90;43.30
33007;DHT22;19361;51.598;7.650;2024-03-02T15:30:16;17.00;43.00
33007;DHT22;19361;51.598;7.650;2024-03-02T15:35:17;17.00;43.40
33007;DHT22;19361;51.598;7.650;2024-03-02T15:40:18;17.00;41.90
33007;DHT22;19361;51.598;7.650;2024-03-02T15:45:18;16.90;42.00
33007;DHT22;19361;51.598;7.650;2024-03-02T15:50:19;16.90;41.90
33007;DHT22;19361;51.598;7.650;2024-03-02T15:55:20;16.90;42.10
33007;DHT22;19361;51.598;7.650;2024-03-02T16:00:20;16.90;42.60
33007;DHT22;19361;51.598;7.650;2024-03-02T16:05:22;16.90;42.30
33007;DHT22;19361;51.598;7.650;2024-03-02T16:10:22;16.80;42.50
33007;DHT22;19361;51.598;7.650;2024-03-02T16:15:25;16.80;43.00
33007;DHT22;19361;51.598;7.650;2024-03-02T16:20:27;16.70;43.20
33007;DHT22;19361;51.598;7.650;2024-03-02T16:25:28;16.60;43.70
33007;DHT22;19361;51.598;7.650;2024-03-02T16:30:29;16.60;44.10
33007;DHT22;19361;51.598;7.650;2024-03-02T16:35:30;16.50;44.40
33007;DHT22;19361;51.598;7.650;2024-03-02T16:40:31;16.50;44.70
33007;DHT22;19361;51.598;7.650;2024-03-02T16:45:32;16.40;44.70
33007;DHT22;19361;51.598;7.650;2024-03-02T16:50:32;16.30;44.90
33007;DHT22;19361;51.598;7.650;2024-03-02T16:55:33;16.20;45.00
33007;DHT22;19361;51.598;7.650;2024-03-02T17:00:34;16.10;45.10
33007;DHT22;19361;51.598;7.650;2024-03-02T17:05:34;16.00;44.90
33007;DHT22;19361;51.598;7.650;2024-03-02T17:10:36;16.00;45.00
33007;DHT22;19361;51.598;7.650;2024-03-02T17:15:37;15.90;45.40
33007;DHT22;19361;51.598;7.650;2024-03-02T17:20:38;15.80;45.90
33007;DHT22;19361;51.598;7.650;2024-03-02T17:25:39;15.70;46.20
33007;DHT22;19361;51.598;7.650;2024-03-02T17:30:39;15.60;46.60
33007;DHT22;19361;51.598;7.650;2024-03-02T17:35:40;15.50;46.90
33007;DHT22;19361;51.598;7.650;2024-03-02T17:40:41;15.50;47.00
33007;DHT22;19361;51.598;7.650;2024-03-02T17:45:43;15.40;47.30
33007;DHT22;19361;51.598;7.650;2024-03-02T17:50:44;15.30;47.80
33007;DHT22;19361;51.598;7.650;2024-03-02T17:55:44;15.30;47.40
33007;DHT22;19361;51.598;7.650;2024-03-02T18:00:45;15.20;47.50
33007;DHT22;19361;51.598;7.650;2024-03-02T18:05:46;15.20;47.70
33007;DHT22;19361;51.598;7.650;2024-03-02T18:10:47;15.10;47.70
33007;DHT22;19361;51.598;7.650;2024-03-02T18:15:48;15.10;47.80
33007;DHT22;19361;51.598;7.650;2024-03-02T18:20:49;15.10;47.90
33007;DHT22;19361;51.598;7.650;2024-03-02T18:25:50;15.00;48.00
33007;DHT22;19361;51.598;7.650;2024-03-02T18:30:50;14.90;48.00
33007;DHT22;19361;51.598;7.650;2024-03-02T18:35:51;14.90;48.10
33007;DHT22;19361;51.598;7.650;2024-03-02T18:40:52;14.90;48.20
33007;DHT22;19361;51.598;7.650;2024-03-02T18:45:52;14.80;48.20
33007;DHT22;19361;51.598;7.650;2024-03-02T18:50:55;14.80;48.30
33007;DHT22;19361;51.598;7.650;2024-03-02T18:55:56;14.70;48.40
33007;DHT22;19361;51.598;7.650;2024-03-02T19:00:57;14.70;48.50
33007;DHT22;19361;51.598;7.650;2024-03-02T19:05:58;14.60;48.60
33007;DHT22;19361;51.598;7.650;2024-03-02T19:10:59;14.60;48.70
33007;DHT22;19361;51.598;7.650;2024-03-02T19:16:00;14.60;48.80
33007;DHT22;19361;51.598;7.650;2024-03-02T19:21:01;14.50;48.90
33007;DHT22;19361;51.598;7.650;2024-03-02T19:26:02;14.50;48.90
33007;DHT22;19361;51.598;7.650;2024-03-02T19:31:04;14.40;49.00
33007;DHT22;19361;51.598;7.650;2024-03-02T19:36:04;14.40;49.10
33007;DHT22;19361;51.598;7.650;2024-03-02T19:41:05;14.30;49.20
33007;DHT22;19361;51.598;7.650;2024-03-02T19:46:06;14.30;49.20
33007;DHT22;19361;51.598;7.650;2024-03-02T19:51:07;14.20;49.30
33007;DHT22;19361;51.598;7.650;2024-03-02T19:56:16;14.20;49.30
33007;DHT22;19361;51.598;7.650;2024-03-02T20:01:18;14.10;49.40
33007;DHT22;19361;51.598;7.650;2024-03-02T20:06:19;14.10;49.30
33007;DHT22;19361;51.598;7.650;2024-03-02T20:11:20;14.10;49.40
33007;DHT22;19361;51.598;7.650;2024-03-02T20:16:20;14.00;49.40
33007;DHT22;19361;51.598;7.650;2024-03-02T20:21:21;14.00;49.50
33007;DHT22;19361;51.598;7.650;2024-03-02T20:26:22;13.90;49.50
33007;DHT22;19361;51.598;7.650;2024-03-02T20:31:22;13.90;49.70
33007;DHT22;19361;51.598;7.650;2024-03-02T20:36:23;13.90;49.80
33007;DHT22;19361;51.598;7.650;2024-03-02T20:41:24;13.90;49.90
33007;DHT22;19361;51.598;7.650;2024-03-02T20:46:24;13.90;50.00
33007;DHT22;19361;51.598;7.650;2024-03-02T20:51:25;13.90;50.10
33007;DHT22;19361;51.598;7.650;2024-03-02T20:56:29;13.90;50.20
33007;DHT22;19361;51.598;7.650;2024-03-02T21:01:30;13.90;50.40
33007;DHT22;19361;51.598;7.650;2024-03-02T21:06:31;13.90;50.40
33007;DHT22;19361;51.598;7.650;2024-03-02T21:11:32;13.90;50.50
33007;DHT22;19361;51.598;7.650;2024-03-02T21:16:32;13.90;50.70
33007;DHT22;19361;51.598;7.650;2024-03-02T21:21:33;13.80;50.60
33007;DHT22;19361;51.598;7.650;2024-03-02T21:26:39;13.80;50.70
33007;DHT22;19361;51.598;7.650;2024-03-02T21:31:41;13.80;50.90
33007;DHT22;19361;51.598;7.650;2024-03-02T21:36:41;13.80;50.80
33007;DHT22;19361;51.598;7.650;2024-03-02T21:41:42;13.80;51.00
33007;DHT22;19361;51.598;7.650;2024-03-02T21:46:45;13.80;51.20
33007;DHT22;19361;51.598;7.650;2024-03-02T21:51:45;13.80;51.20
33007;DHT22;19361;51.598;7.650;2024-03-02T21:56:46;13.80;51.30
33007;DHT22;19361;51.598;7.650;2024-03-02T22:01:48;13.90;51.70
33007;DHT22;19361;51.598;7.650;2024-03-02T22:06:48;13.80;51.60
33007;DHT22;19361;51.598;7.650;2024-03-02T22:11:49;13.90;51.80
33007;DHT22;19361;51.598;7.650;2024-03-02T22:16:50;13.90;51.80
33007;DHT22;19361;51.598;7.650;2024-03-02T22:21:50;13.90;51.90
33007;DHT22;19361;51.598;7.650;2024-03-02T22:26:52;13.90;52.00
33007;DHT22;19361;51.598;7.650;2024-03-02T22:31:52;13.90;52.00
33007;DHT22;19361;51.598;7.650;2024-03-02T22:36:53;13.90;52.20
33007;DHT22;19361;51.598;7.650;2024-03-02T22:41:54;13.90;52.10
33007;DHT22;19361;51.598;7.650;2024-03-02T22:46:55;13.90;52.30
33007;DHT22;19361;51.598;7.650;2024-03-02T22:51:56;13.90;52.20
33007;DHT22;19361;51.598;7.650;2024-03-02T22:56:57;13.90;52.30
33007;DHT22;19361;51.598;7.650;2024-03-02T23:01:57;13.80;52.20
33007;DHT22;19361;51.598;7.650;2024-03-02T23:06:58;13.80;52.20
33007;DHT22;19361;51.598;7.650;2024-03-02T23:11:59;13.70;52.20
33007;DHT22;19361;51.598;7.650;2024-03-02T23:16:59;13.70;52.30
33007;DHT22;19361;51.598;7.650;2024-03-02T23:22:00;13.60;52.30
33007;DHT22;19361;51.598;7.650;2024-03-02T23:27:01;13.60;52.30
33007;DHT22;19361;51.598;7.650;2024-03-02T23:32:01;13.50;52.40
33007;DHT22;19361;51.598;7.650;2024-03-02T23:37:02;13.50;52.60
33007;DHT22;19361;51.598;7.650;2024-03-02T23:42:03;13.50;52.70
33007;DHT22;19361;51.598;7.650;2024-03-02T23:47:04;13.50;52.80
33007;DHT22;19361;51.598;7.650;2024-03-02T23:52:06;13.40;52.90
33007;DHT22;19361;51.598;7.650;2024-03-02T23:57:06;13.40;52.90
